sensor_id;sensor_type;location;lat;lon;timestamp;pressure;altitude;pressure_sealevel;temperature;humidity
48244;BME280;34053;51.088;6.572;2022-07-24T00:01:12;101374.25;;;22.15;49.33
48244;BME280;34053;51.088;6.572;2022-07-24T00:03:50;101370.75;;;22.15;49.21
48244;BME280;34053;51.088;6.572;2022-07-24T00:06:22;101371.88;;;22.11;49.46
48244;BME280;34053;51.088;6.572;2022-07-24T00:08:53;101377.44;;;22.08;49.07
48244;BME280;34053;51.088;6.572;2022-07-24T00:11:48;101381.25;;;22.04;49.31
48244;BME280;34053;51.088;6.572;2022-07-24T00:14:21;101368.97;;;22.01;49.41
48244;BME280;34053;51.088;6.572;2022-07-24T00:16:52;101363.75;;;21.99;49.16
48244;BME280;34053;51.088;6.572;2022-07-24T00:19:22;101364.88;;;21.95;49.48
48244;BME280;34053;51.088;6.572;2022-07-24T00:21:58;101367.66;;;21.94;49.55
48244;BME280;34053;51.088;6.572;2022-07-24T00:24:30;101367.00;;;21.90;49.48
48244;BME280;34053;51.088;6.572;2022-07-24T00:27:10;101361.84;;;21.87;49.37
48244;BME280;34053;51.088;6.572;2022-07-24T00:29:47;101361.31;;;21.82;49.80
48244;BME280;34053;51.088;6.572;2022-07-24T00:32:22;101357.88;;;21.80;49.92
48244;BME280;34053;51.088;6.572;2022-07-24T00:34:53;101361.59;;;21.77;49.90
48244;BME280;34053;51.088;6.572;2022-07-24T00:37:24;101360.94;;;21.74;49.76
48244;BME280;34053;51.088;6.572;2022-07-24T00:39:55;101356.56;;;21.73;49.90
48244;BME280;34053;51.088;6.572;2022-07-24T00:42:25;101362.06;;;21.69;50.12
48244;BME280;34053;51.088;6.572;2022-07-24T00:44:56;101359.63;;;21.66;49.89
48244;BME280;34053;51.088;6.572;2022-07-24T00:47:27;101356.19;;;21.64;49.70
48244;BME280;34053;51.088;6.572;2022-07-24T00:49:58;101359.03;;;21.61;49.97
48244;BME280;34053;51.088;6.572;2022-07-24T00:52:34;101359.25;;;21.58;50.08
48244;BME280;34053;51.088;6.572;2022-07-24T00:55:08;101363.78;;;21.56;50.12
48244;BME280;34053;51.088;6.572;2022-07-24T00:57:39;101355.97;;;21.53;50.14
48244;BME280;34053;51.088;6.572;2022-07-24T01:00:15;101361.53;;;21.50;50.01
48244;BME280;34053;51.088;6.572;2022-07-24T01:02:48;101359.69;;;21.50;50.40
48244;BME280;34053;51.088;6.572;2022-07-24T01:05:19;101365.31;;;21.46;50.20
48244;BME280;34053;51.088;6.572;2022-07-24T01:07:52;101361.91;;;21.44;50.13
48244;BME280;34053;51.088;6.572;2022-07-24T01:10:22;101363.81;;;21.42;50.37
48244;BME280;34053;51.088;6.572;2022-07-24T01:12:53;101362.19;;;21.39;50.42
48244;BME280;34053;51.088;6.572;2022-07-24T01:15:24;101363.22;;;21.36;50.32
48244;BME280;34053;51.088;6.572;2022-07-24T01:17:57;101361.59;;;21.34;50.52
48244;BME280;34053;51.088;6.572;2022-07-24T01:20:27;101350.09;;;21.33;50.88
48244;BME280;34053;51.088;6.572;2022-07-24T01:22:58;101352.88;;;21.32;50.67
48244;BME280;34053;51.088;6.572;2022-07-24T01:25:29;101346.84;;;21.28;50.57
48244;BME280;34053;51.088;6.572;2022-07-24T01:28:12;101347.03;;;21.25;50.58
48244;BME280;34053;51.088;6.572;2022-07-24T01:30:42;101353.34;;;21.24;50.74
48244;BME280;34053;51.088;6.572;2022-07-24T01:33:13;101355.34;;;21.20;50.84
48244;BME280;34053;51.088;6.572;2022-07-24T01:35:44;101353.63;;;21.19;51.06
48244;BME280;34053;51.088;6.572;2022-07-24T01:38:15;101352.94;;;21.16;50.52
48244;BME280;34053;51.088;6.572;2022-07-24T01:40:45;101347.72;;;21.14;51.08
48244;BME280;34053;51.088;6.572;2022-07-24T01:43:16;101349.50;;;21.14;51.00
48244;BME280;34053;51.088;6.572;2022-07-24T01:45:47;101348.84;;;21.10;50.86
48244;BME280;34053;51.088;6.572;2022-07-24T01:48:19;101341.78;;;21.09;51.14
48244;BME280;34053;51.088;6.572;2022-07-24T01:50:50;101342.84;;;21.06;51.01
48244;BME280;34053;51.088;6.572;2022-07-24T01:53:22;101340.28;;;21.05;51.07
48244;BME280;34053;51.088;6.572;2022-07-24T01:55:52;101346.66;;;21.02;51.09
48244;BME280;34053;51.088;6.572;2022-07-24T01:58:24;101342.34;;;21.00;51.39
48244;BME280;34053;51.088;6.572;2022-07-24T02:00:54;101342.47;;;20.98;51.24
48244;BME280;34053;51.088;6.572;2022-07-24T02:03:25;101345.28;;;20.95;51.36
48244;BME280;34053;51.088;6.572;2022-07-24T02:05:56;101340.06;;;20.94;51.38
48244;BME280;34053;51.088;6.572;2022-07-24T02:08:26;101333.97;;;20.91;51.25
48244;BME280;34053;51.088;6.572;2022-07-24T02:10:57;101334.16;;;20.88;51.26
48244;BME280;34053;51.088;6.572;2022-07-24T02:13:27;101331.56;;;20.87;51.09
48244;BME280;34053;51.088;6.572;2022-07-24T02:15:58;101333.50;;;20.85;51.47
48244;BME280;34053;51.088;6.572;2022-07-24T02:18:28;101329.13;;;20.84;51.26
48244;BME280;34053;51.088;6.572;2022-07-24T02:20:59;101341.66;;;20.82;51.33
48244;BME280;34053;51.088;6.572;2022-07-24T02:23:30;101334.72;;;20.79;51.50
48244;BME280;34053;51.088;6.572;2022-07-24T02:26:06;101323.19;;;20.79;51.82
48244;BME280;34053;51.088;6.572;2022-07-24T02:28:36;101327.84;;;20.75;51.57
48244;BME280;34053;51.088;6.572;2022-07-24T02:31:10;101328.81;;;20.74;51.70
48244;BME280;34053;51.088;6.572;2022-07-24T02:33:43;101321.81;;;20.71;51.65
48244;BME280;34053;51.088;6.572;2022-07-24T02:36:14;101323.72;;;20.69;51.86
48244;BME280;34053;51.088;6.572;2022-07-24T02:38:45;101324.75;;;20.67;51.83
48244;BME280;34053;51.088;6.572;2022-07-24T02:41:16;101322.19;;;20.65;51.90
48244;BME280;34053;51.088;6.572;2022-07-24T02:43:47;101319.63;;;20.64;51.96
48244;BME280;34053;51.088;6.572;2022-07-24T02:46:17;101319.78;;;20.60;51.82
48244;BME280;34053;51.088;6.572;2022-07-24T02:48:51;101320.84;;;20.58;51.92
48244;BME280;34053;51.088;6.572;2022-07-24T02:51:21;101318.19;;;20.58;51.90
48244;BME280;34053;51.088;6.572;2022-07-24T02:53:52;101321.00;;;20.55;52.35
48244;BME280;34053;51.088;6.572;2022-07-24T02:56:22;101314.94;;;20.53;51.80
48244;BME280;34053;51.088;6.572;2022-07-24T02:58:53;101318.56;;;20.52;51.99
48244;BME280;34053;51.088;6.572;2022-07-24T03:01:23;101312.44;;;20.50;52.02
48244;BME280;34053;51.088;6.572;2022-07-24T03:03:54;101310.72;;;20.49;52.34
48244;BME280;34053;51.088;6.572;2022-07-24T03:06:24;101317.94;;;20.47;52.41
48244;BME280;34053;51.088;6.572;2022-07-24T03:08:55;101318.16;;;20.43;52.39
48244;BME280;34053;51.088;6.572;2022-07-24T03:11:25;101311.09;;;20.42;52.31
48244;BME280;34053;51.088;6.572;2022-07-24T03:13:56;101316.59;;;20.39;52.45
48244;BME280;34053;51.088;6.572;2022-07-24T03:16:27;101319.38;;;20.38;52.77
48244;BME280;34053;51.088;6.572;2022-07-24T03:18:57;101308.88;;;20.35;52.36
48244;BME280;34053;51.088;6.572;2022-07-24T03:21:28;101308.97;;;20.33;52.68
48244;BME280;34053;51.088;6.572;2022-07-24T03:23:58;101309.06;;;20.32;52.40
48244;BME280;34053;51.088;6.572;2022-07-24T03:26:39;101307.34;;;20.31;52.71
48244;BME280;34053;51.088;6.572;2022-07-24T03:29:13;101312.84;;;20.27;52.67
48244;BME280;34053;51.088;6.572;2022-07-24T03:31:43;101315.50;;;20.27;52.70
48244;BME280;34053;51.088;6.572;2022-07-24T03:34:16;101318.28;;;20.26;52.47
48244;BME280;34053;51.088;6.572;2022-07-24T03:36:47;101311.41;;;20.22;52.61
48244;BME280;34053;51.088;6.572;2022-07-24T03:39:18;101313.31;;;20.20;52.60
48244;BME280;34053;51.088;6.572;2022-07-24T03:41:48;101317.88;;;20.18;52.98
48244;BME280;34053;51.088;6.572;2022-07-24T03:44:19;101309.97;;;20.16;53.61
48244;BME280;34053;51.088;6.572;2022-07-24T03:46:49;101310.03;;;20.15;52.73
48244;BME280;34053;51.088;6.572;2022-07-24T03:49:22;101307.59;;;20.11;53.17
48244;BME280;34053;51.088;6.572;2022-07-24T03:51:53;101315.47;;;20.13;52.80
48244;BME280;34053;51.088;6.572;2022-07-24T03:54:26;101328.91;;;20.11;52.83
48244;BME280;34053;51.088;6.572;2022-07-24T03:56:57;101318.25;;;20.11;53.09
48244;BME280;34053;51.088;6.572;2022-07-24T03:59:30;101323.72;;;20.08;53.24
48244;BME280;34053;51.088;6.572;2022-07-24T04:02:00;101324.56;;;20.09;53.10
48244;BME280;34053;51.088;6.572;2022-07-24T04:04:31;101326.56;;;20.05;53.35
48244;BME280;34053;51.088;6.572;2022-07-24T04:07:02;101323.16;;;20.03;53.13
48244;BME280;34053;51.088;6.572;2022-07-24T04:09:32;101323.22;;;20.02;53.50
48244;BME280;34053;51.088;6.572;2022-07-24T04:12:08;101319.72;;;20.01;53.35
48244;BME280;34053;51.088;6.572;2022-07-24T04:14:38;101324.25;;;19.99;53.08
48244;BME280;34053;51.088;6.572;2022-07-24T04:17:12;101318.94;;;19.99;53.30
48244;BME280;34053;51.088;6.572;2022-07-24T04:19:43;101319.88;;;19.98;53.64
48244;BME280;34053;51.088;6.572;2022-07-24T04:22:14;101325.19;;;19.98;53.62
48244;BME280;34053;51.088;6.572;2022-07-24T04:24:47;101320.81;;;19.97;53.37
48244;BME280;34053;51.088;6.572;2022-07-24T04:27:17;101330.63;;;19.96;53.50
48244;BME280;34053;51.088;6.572;2022-07-24T04:29:48;101327.09;;;19.96;53.44
48244;BME280;34053;51.088;6.572;2022-07-24T04:32:19;101317.41;;;19.95;53.94
48244;BME280;34053;51.088;6.572;2022-07-24T04:34:49;101321.00;;;19.94;53.29
48244;BME280;34053;51.088;6.572;2022-07-24T04:37:23;101320.06;;;19.95;53.85
48244;BME280;34053;51.088;6.572;2022-07-24T04:39:54;101321.00;;;19.94;53.92
48244;BME280;34053;51.088;6.572;2022-07-24T04:42:25;101324.50;;;19.94;53.90
48244;BME280;34053;51.088;6.572;2022-07-24T04:44:55;101318.34;;;19.94;53.77
48244;BME280;34053;51.088;6.572;2022-07-24T04:47:26;101328.06;;;19.95;53.94
48244;BME280;34053;51.088;6.572;2022-07-24T04:49:57;101334.31;;;19.94;55.76
48244;BME280;34053;51.088;6.572;2022-07-24T04:52:30;101329.16;;;19.91;54.28
48244;BME280;34053;51.088;6.572;2022-07-24T04:55:01;101329.16;;;19.91;54.55
48244;BME280;34053;51.088;6.572;2022-07-24T04:57:31;101334.31;;;19.94;54.43
48244;BME280;34053;51.088;6.572;2022-07-24T05:00:05;101333.53;;;19.92;54.63
48244;BME280;34053;51.088;6.572;2022-07-24T05:02:40;101334.22;;;19.95;55.29
48244;BME280;34053;51.088;6.572;2022-07-24T05:05:11;101343.41;;;19.90;54.96
48244;BME280;34053;51.088;6.572;2022-07-24T05:07:41;101347.63;;;19.94;55.29
48244;BME280;34053;51.088;6.572;2022-07-24T05:10:12;101349.22;;;19.80;58.84
48244;BME280;34053;51.088;6.572;2022-07-24T05:12:42;101347.06;;;19.71;57.79
48244;BME280;34053;51.088;6.572;2022-07-24T05:15:13;101349.31;;;19.63;60.32
48244;BME280;34053;51.088;6.572;2022-07-24T05:17:43;101348.38;;;19.64;59.10
48244;BME280;34053;51.088;6.572;2022-07-24T05:20:17;101351.72;;;19.67;59.89
48244;BME280;34053;51.088;6.572;2022-07-24T05:22:48;101353.13;;;19.75;57.81
48244;BME280;34053;51.088;6.572;2022-07-24T05:25:19;101346.63;;;19.63;60.09
48244;BME280;34053;51.088;6.572;2022-07-24T05:27:52;101354.63;;;19.63;60.33
48244;BME280;34053;51.088;6.572;2022-07-24T05:30:22;101353.19;;;19.73;57.98
48244;BME280;34053;51.088;6.572;2022-07-24T05:32:53;101351.13;;;19.78;57.03
48244;BME280;34053;51.088;6.572;2022-07-24T05:35:23;101355.22;;;19.84;56.29
48244;BME280;34053;51.088;6.572;2022-07-24T05:37:55;101360.53;;;19.86;56.29
48244;BME280;34053;51.088;6.572;2022-07-24T05:40:28;101360.34;;;19.89;56.12
48244;BME280;34053;51.088;6.572;2022-07-24T05:42:58;101361.91;;;19.93;55.67
48244;BME280;34053;51.088;6.572;2022-07-24T05:45:31;101360.84;;;19.95;55.87
48244;BME280;34053;51.088;6.572;2022-07-24T05:48:02;101358.97;;;19.97;55.65
48244;BME280;34053;51.088;6.572;2022-07-24T05:50:33;101357.94;;;20.00;55.78
48244;BME280;34053;51.088;6.572;2022-07-24T05:53:11;101354.22;;;20.03;55.74
48244;BME280;34053;51.088;6.572;2022-07-24T05:55:41;101361.19;;;20.05;55.71
48244;BME280;34053;51.088;6.572;2022-07-24T05:58:12;101369.00;;;20.08;55.63
48244;BME280;34053;51.088;6.572;2022-07-24T06:00:43;101368.84;;;20.11;55.29
48244;BME280;34053;51.088;6.572;2022-07-24T06:03:14;101362.38;;;20.16;55.57
48244;BME280;34053;51.088;6.572;2022-07-24T06:05:52;101357.16;;;20.14;55.68
48244;BME280;34053;51.088;6.572;2022-07-24T06:08:40;101360.59;;;20.16;55.70
48244;BME280;34053;51.088;6.572;2022-07-24T06:11:21;101357.84;;;20.18;55.44
48244;BME280;34053;51.088;6.572;2022-07-24T06:13:53;101358.63;;;20.20;55.58
48244;BME280;34053;51.088;6.572;2022-07-24T06:16:23;101361.84;;;20.25;55.61
48244;BME280;34053;51.088;6.572;2022-07-24T06:18:54;101360.72;;;20.29;54.90
48244;BME280;34053;51.088;6.572;2022-07-24T06:21:25;101357.09;;;20.30;55.47
48244;BME280;34053;51.088;6.572;2022-07-24T06:24:08;101364.94;;;20.33;55.21
48244;BME280;34053;51.088;6.572;2022-07-24T06:26:41;101362.09;;;20.36;55.37
48244;BME280;34053;51.088;6.572;2022-07-24T06:29:14;101363.72;;;20.39;55.34
48244;BME280;34053;51.088;6.572;2022-07-24T06:31:45;101366.28;;;20.40;55.46
48244;BME280;34053;51.088;6.572;2022-07-24T06:34:16;101358.28;;;20.40;56.58
48244;BME280;34053;51.088;6.572;2022-07-24T06:36:50;101355.47;;;20.43;55.89
48244;BME280;34053;51.088;6.572;2022-07-24T06:39:21;101351.84;;;20.44;55.74
48244;BME280;34053;51.088;6.572;2022-07-24T06:41:54;101354.41;;;20.46;55.67
48244;BME280;34053;51.088;6.572;2022-07-24T06:44:26;101351.66;;;20.48;55.31
48244;BME280;34053;51.088;6.572;2022-07-24T06:46:56;101349.75;;;20.50;55.86
48244;BME280;34053;51.088;6.572;2022-07-24T06:49:33;101345.53;;;20.45;56.55
48244;BME280;34053;51.088;6.572;2022-07-24T06:52:12;101341.50;;;20.54;55.63
48244;BME280;34053;51.088;6.572;2022-07-24T06:54:49;101341.59;;;20.53;56.85
48244;BME280;34053;51.088;6.572;2022-07-24T06:57:33;101348.63;;;20.54;55.94
48244;BME280;34053;51.088;6.572;2022-07-24T07:00:08;101349.03;;;20.62;55.57
48244;BME280;34053;51.088;6.572;2022-07-24T07:02:53;101351.69;;;20.62;56.32
48244;BME280;34053;51.088;6.572;2022-07-24T07:05:56;101354.00;;;20.68;56.25
48244;BME280;34053;51.088;6.572;2022-07-24T07:08:50;101354.69;;;20.72;57.00
48244;BME280;34053;51.088;6.572;2022-07-24T07:16:06;101356.34;;;20.89;55.96
48244;BME280;34053;51.088;6.572;2022-07-24T07:18:40;101355.41;;;21.04;55.98
48244;BME280;34053;51.088;6.572;2022-07-24T07:21:16;101358.00;;;21.06;56.19
48244;BME280;34053;51.088;6.572;2022-07-24T07:23:48;101350.66;;;21.10;57.32
48244;BME280;34053;51.088;6.572;2022-07-24T07:26:24;101358.66;;;21.10;56.75
48244;BME280;34053;51.088;6.572;2022-07-24T07:28:54;101360.00;;;21.17;56.56
48244;BME280;34053;51.088;6.572;2022-07-24T07:31:25;101360.56;;;21.22;55.81
48244;BME280;34053;51.088;6.572;2022-07-24T07:33:57;101364.50;;;21.31;55.89
48244;BME280;34053;51.088;6.572;2022-07-24T07:36:35;101368.78;;;21.33;56.03
48244;BME280;34053;51.088;6.572;2022-07-24T07:39:08;101360.09;;;21.30;56.22
48244;BME280;34053;51.088;6.572;2022-07-24T07:41:39;101363.63;;;21.30;56.59
48244;BME280;34053;51.088;6.572;2022-07-24T07:44:10;101364.38;;;21.32;56.89
48244;BME280;34053;51.088;6.572;2022-07-24T07:46:41;101363.16;;;21.38;56.63
48244;BME280;34053;51.088;6.572;2022-07-24T07:49:14;101365.72;;;21.39;57.19
48244;BME280;34053;51.088;6.572;2022-07-24T07:51:45;101357.53;;;21.43;58.18
48244;BME280;34053;51.088;6.572;2022-07-24T07:54:17;101363.81;;;21.42;57.37
48244;BME280;34053;51.088;6.572;2022-07-24T07:56:48;101362.75;;;21.44;58.03
48244;BME280;34053;51.088;6.572;2022-07-24T07:59:19;101362.06;;;21.55;56.89
48244;BME280;34053;51.088;6.572;2022-07-24T08:01:50;101358.56;;;21.54;58.18
48244;BME280;34053;51.088;6.572;2022-07-24T08:04:23;101356.47;;;21.60;57.96
48244;BME280;34053;51.088;6.572;2022-07-24T08:06:55;101350.72;;;21.66;57.28
48244;BME280;34053;51.088;6.572;2022-07-24T08:09:26;101353.31;;;21.67;57.93
48244;BME280;34053;51.088;6.572;2022-07-24T08:11:59;101351.41;;;21.69;57.82
48244;BME280;34053;51.088;6.572;2022-07-24T08:14:30;101341.47;;;21.72;57.87
48244;BME280;34053;51.088;6.572;2022-07-24T08:17:04;101339.47;;;21.75;57.70
48244;BME280;34053;51.088;6.572;2022-07-24T08:19:34;101342.59;;;21.82;57.71
48244;BME280;34053;51.088;6.572;2022-07-24T08:22:11;101339.63;;;21.87;57.43
48244;BME280;34053;51.088;6.572;2022-07-24T08:24:47;101335.91;;;21.89;57.67
48244;BME280;34053;51.088;6.572;2022-07-24T08:27:21;101337.44;;;21.93;56.35
48244;BME280;34053;51.088;6.572;2022-07-24T08:29:52;101348.56;;;22.00;55.63
48244;BME280;34053;51.088;6.572;2022-07-24T08:32:26;101346.53;;;22.04;56.08
48244;BME280;34053;51.088;6.572;2022-07-24T08:35:02;101342.50;;;22.11;55.58
48244;BME280;34053;51.088;6.572;2022-07-24T08:37:37;101329.81;;;22.14;56.02
48244;BME280;34053;51.088;6.572;2022-07-24T08:40:13;101334.81;;;22.19;56.68
48244;BME280;34053;51.088;6.572;2022-07-24T08:43:08;101327.16;;;22.27;55.57
48244;BME280;34053;51.088;6.572;2022-07-24T08:45:42;101328.47;;;22.35;55.72
48244;BME280;34053;51.088;6.572;2022-07-24T08:48:23;101321.94;;;22.39;55.33
48244;BME280;34053;51.088;6.572;2022-07-24T08:51:00;101313.09;;;22.38;55.00
48244;BME280;34053;51.088;6.572;2022-07-24T08:53:31;101325.19;;;22.44;55.25
48244;BME280;34053;51.088;6.572;2022-07-24T08:56:09;101321.56;;;22.45;55.40
48244;BME280;34053;51.088;6.572;2022-07-24T08:58:40;101317.50;;;22.52;55.29
48244;BME280;34053;51.088;6.572;2022-07-24T09:01:17;101317.50;;;22.52;55.11
48244;BME280;34053;51.088;6.572;2022-07-24T09:03:47;101316.78;;;22.63;54.10
48244;BME280;34053;51.088;6.572;2022-07-24T09:06:21;101310.25;;;22.67;54.46
48244;BME280;34053;51.088;6.572;2022-07-24T09:09:05;101303.44;;;22.76;53.75
48244;BME280;34053;51.088;6.572;2022-07-24T09:11:39;101298.06;;;22.76;53.92
48244;BME280;34053;51.088;6.572;2022-07-24T09:14:10;101291.31;;;22.83;53.36
48244;BME280;34053;51.088;6.572;2022-07-24T09:17:12;101293.34;;;22.92;52.04
48244;BME280;34053;51.088;6.572;2022-07-24T09:22:39;101283.94;;;23.00;52.30
48244;BME280;34053;51.088;6.572;2022-07-24T09:25:40;101290.09;;;23.13;52.05
48244;BME280;34053;51.088;6.572;2022-07-24T09:28:13;101280.91;;;23.17;52.26
48244;BME280;34053;51.088;6.572;2022-07-24T09:31:00;101273.31;;;23.24;51.18
48244;BME280;34053;51.088;6.572;2022-07-24T09:33:42;101276.63;;;23.27;51.22
48244;BME280;34053;51.088;6.572;2022-07-24T09:36:14;101270.84;;;23.34;50.54
48244;BME280;34053;51.088;6.572;2022-07-24T09:38:49;101279.59;;;23.36;50.83
48244;BME280;34053;51.088;6.572;2022-07-24T09:41:24;101273.81;;;23.42;51.21
48244;BME280;34053;51.088;6.572;2022-07-24T09:44:02;101268.75;;;23.50;51.03
48244;BME280;34053;51.088;6.572;2022-07-24T09:46:33;101274.69;;;23.67;50.44
48244;BME280;34053;51.088;6.572;2022-07-24T09:49:25;101278.34;;;23.66;50.71
48244;BME280;34053;51.088;6.572;2022-07-24T09:54:47;101260.84;;;23.73;49.77
48244;BME280;34053;51.088;6.572;2022-07-24T10:00:27;101265.25;;;23.85;50.22
48244;BME280;34053;51.088;6.572;2022-07-24T10:03:00;101261.69;;;23.98;50.35
48244;BME280;34053;51.088;6.572;2022-07-24T10:05:36;101251.72;;;24.00;50.21
48244;BME280;34053;51.088;6.572;2022-07-24T10:08:13;101252.50;;;24.13;48.91
48244;BME280;34053;51.088;6.572;2022-07-24T10:10:44;101259.31;;;24.17;49.03
48244;BME280;34053;51.088;6.572;2022-07-24T10:13:25;101248.50;;;24.19;48.74
48244;BME280;34053;51.088;6.572;2022-07-24T10:16:03;101251.66;;;24.24;48.19
48244;BME280;34053;51.088;6.572;2022-07-24T10:21:53;101244.75;;;24.33;48.65
48244;BME280;34053;51.088;6.572;2022-07-24T10:25:07;101235.13;;;24.42;49.68
48244;BME280;34053;51.088;6.572;2022-07-24T10:27:38;101237.47;;;24.58;48.23
48244;BME280;34053;51.088;6.572;2022-07-24T10:33:12;101236.91;;;24.77;47.38
48244;BME280;34053;51.088;6.572;2022-07-24T10:51:24;101223.09;;;24.93;45.91
48244;BME280;34053;51.088;6.572;2022-07-24T10:54:23;101227.50;;;25.05;45.72
48244;BME280;34053;51.088;6.572;2022-07-24T11:01:31;101214.03;;;25.17;45.29
48244;BME280;34053;51.088;6.572;2022-07-24T11:04:33;101200.22;;;25.21;45.46
48244;BME280;34053;51.088;6.572;2022-07-24T11:10:59;101212.44;;;25.37;44.15
48244;BME280;34053;51.088;6.572;2022-07-24T11:15:02;101199.75;;;25.39;44.36
48244;BME280;34053;51.088;6.572;2022-07-24T11:32:20;101179.38;;;25.90;41.36
48244;BME280;34053;51.088;6.572;2022-07-24T11:34:57;101181.16;;;26.01;40.32
48244;BME280;34053;51.088;6.572;2022-07-24T11:37:34;101176.44;;;26.14;39.58
48244;BME280;34053;51.088;6.572;2022-07-24T11:40:14;101175.31;;;26.17;39.61
48244;BME280;34053;51.088;6.572;2022-07-24T11:42:57;101171.28;;;26.32;40.34
48244;BME280;34053;51.088;6.572;2022-07-24T11:46:12;101169.81;;;26.39;40.29
48244;BME280;34053;51.088;6.572;2022-07-24T11:49:38;101163.31;;;26.52;40.51
48244;BME280;34053;51.088;6.572;2022-07-24T11:52:28;101156.25;;;26.51;41.25
48244;BME280;34053;51.088;6.572;2022-07-24T11:55:19;101148.34;;;26.59;39.54
48244;BME280;34053;51.088;6.572;2022-07-24T11:58:02;101145.81;;;26.67;39.92
48244;BME280;34053;51.088;6.572;2022-07-24T12:00:33;101150.72;;;26.83;38.60
48244;BME280;34053;51.088;6.572;2022-07-24T12:03:08;101157.56;;;26.97;38.28
48244;BME280;34053;51.088;6.572;2022-07-24T12:06:12;101147.63;;;27.08;38.33
48244;BME280;34053;51.088;6.572;2022-07-24T12:08:50;101136.88;;;27.08;39.84
48244;BME280;34053;51.088;6.572;2022-07-24T12:11:21;101134.34;;;27.26;38.16
48244;BME280;34053;51.088;6.572;2022-07-24T12:13:52;101136.06;;;27.46;38.01
48244;BME280;34053;51.088;6.572;2022-07-24T12:16:27;101137.47;;;27.41;39.16
48244;BME280;34053;51.088;6.572;2022-07-24T12:19:18;101134.38;;;27.55;38.01
48244;BME280;34053;51.088;6.572;2022-07-24T12:21:55;101133.50;;;27.64;38.79
48244;BME280;34053;51.088;6.572;2022-07-24T12:24:32;101128.69;;;27.78;37.22
48244;BME280;34053;51.088;6.572;2022-07-24T12:27:32;101123.53;;;27.94;38.25
48244;BME280;34053;51.088;6.572;2022-07-24T12:30:19;101120.22;;;28.20;36.14
48244;BME280;34053;51.088;6.572;2022-07-24T12:32:55;101123.03;;;28.29;37.14
48244;BME280;34053;51.088;6.572;2022-07-24T12:44:24;101101.84;;;28.62;39.17
48244;BME280;34053;51.088;6.572;2022-07-24T12:47:33;101107.75;;;28.75;38.51
48244;BME280;34053;51.088;6.572;2022-07-24T12:50:18;101107.69;;;28.85;39.26
48244;BME280;34053;51.088;6.572;2022-07-24T12:53:09;101099.75;;;29.01;39.08
48244;BME280;34053;51.088;6.572;2022-07-24T12:55:41;101092.91;;;29.07;39.90
48244;BME280;34053;51.088;6.572;2022-07-24T12:58:14;101096.06;;;29.20;38.84
48244;BME280;34053;51.088;6.572;2022-07-24T13:01:13;101091.22;;;29.42;36.28
48244;BME280;34053;51.088;6.572;2022-07-24T13:04:11;101080.84;;;29.56;35.70
48244;BME280;34053;51.088;6.572;2022-07-24T13:06:52;101081.00;;;29.54;37.78
48244;BME280;34053;51.088;6.572;2022-07-24T13:09:27;101078.53;;;29.61;36.27
48244;BME280;34053;51.088;6.572;2022-07-24T13:12:25;101063.78;;;29.81;34.30
48244;BME280;34053;51.088;6.572;2022-07-24T13:14:57;101053.13;;;29.80;36.13
48244;BME280;34053;51.088;6.572;2022-07-24T13:17:28;101055.88;;;29.88;37.61
48244;BME280;34053;51.088;6.572;2022-07-24T13:19:58;101059.50;;;29.97;35.43
48244;BME280;34053;51.088;6.572;2022-07-24T13:22:32;101051.59;;;30.04;37.21
48244;BME280;34053;51.088;6.572;2022-07-24T13:25:03;101057.06;;;30.20;36.92
48244;BME280;34053;51.088;6.572;2022-07-24T13:27:33;101048.16;;;30.28;37.57
48244;BME280;34053;51.088;6.572;2022-07-24T13:30:04;101048.50;;;30.33;36.99
48244;BME280;34053;51.088;6.572;2022-07-24T13:32:34;101041.41;;;30.40;37.58
48244;BME280;34053;51.088;6.572;2022-07-24T13:35:05;101043.84;;;30.52;36.48
48244;BME280;34053;51.088;6.572;2022-07-24T13:37:36;101042.88;;;30.61;37.86
48244;BME280;34053;51.088;6.572;2022-07-24T13:40:07;101041.81;;;30.62;36.38
48244;BME280;34053;51.088;6.572;2022-07-24T13:42:41;101032.06;;;30.77;37.46
48244;BME280;34053;51.088;6.572;2022-07-24T13:45:12;101027.31;;;30.88;37.38
48244;BME280;34053;51.088;6.572;2022-07-24T13:47:42;101028.31;;;30.70;35.25
48244;BME280;34053;51.088;6.572;2022-07-24T13:50:13;101019.19;;;30.80;35.96
48244;BME280;34053;51.088;6.572;2022-07-24T13:52:43;101007.34;;;30.89;35.60
48244;BME280;34053;51.088;6.572;2022-07-24T13:55:13;101012.44;;;30.92;35.88
48244;BME280;34053;51.088;6.572;2022-07-24T13:57:44;101007.84;;;31.01;36.40
48244;BME280;34053;51.088;6.572;2022-07-24T14:00:15;100994.66;;;31.06;36.17
48244;BME280;34053;51.088;6.572;2022-07-24T14:02:46;101000.75;;;31.16;32.67
48244;BME280;34053;51.088;6.572;2022-07-24T14:05:16;100987.69;;;31.28;34.13
48244;BME280;34053;51.088;6.572;2022-07-24T14:07:47;100986.34;;;31.32;33.44
48244;BME280;34053;51.088;6.572;2022-07-24T14:10:19;100987.00;;;31.43;34.16
48244;BME280;34053;51.088;6.572;2022-07-24T14:12:49;100985.63;;;31.47;33.42
48244;BME280;34053;51.088;6.572;2022-07-24T14:15:20;100975.44;;;31.57;33.18
48244;BME280;34053;51.088;6.572;2022-07-24T14:17:51;100971.72;;;31.58;34.68
48244;BME280;34053;51.088;6.572;2022-07-24T14:20:21;100970.72;;;31.67;33.68
48244;BME280;34053;51.088;6.572;2022-07-24T14:22:52;100965.91;;;31.78;34.47
48244;BME280;34053;51.088;6.572;2022-07-24T14:25:24;100961.66;;;31.83;33.69
48244;BME280;34053;51.088;6.572;2022-07-24T14:27:55;100952.31;;;31.86;34.48
48244;BME280;34053;51.088;6.572;2022-07-24T14:30:26;100949.75;;;31.93;32.90
48244;BME280;34053;51.088;6.572;2022-07-24T14:32:57;100951.72;;;31.99;34.61
48244;BME280;34053;51.088;6.572;2022-07-24T14:35:27;100948.53;;;31.95;34.14
48244;BME280;34053;51.088;6.572;2022-07-24T14:37:59;100940.84;;;32.07;34.62